Time;durP1;ratioP1;P1;durP2;ratioP2;P2;SDS_P1;SDS_P2;PMS_P1;PMS_P2;Temp;Humidity;BMP_temperature;BMP_pressure;BME280_temperature;BME280_humidity;BME280_pressure;Samples;Min_cycle;Max_cycle;Signal;HPM_P1;HPM_P2
2023/01/05 03:00:23;;;;;;;9.27;8.77;;;10.50;99.90;;;;;;5992048;23;20179;31
2023/01/05 03:02:55;;;;;;;9.40;8.90;;;10.50;99.90;;;;;;4891957;29;20214;-81
2023/01/05 03:05:27;;;;;;;9.50;9.00;;;10.50;99.90;;;;;;4873953;29;20694;-81
2023/01/05 03:08:05;;;;;;;9.30;8.80;;;10.50;99.90;;;;;;4877703;29;20302;-81
2023/01/05 03:13:41;;;;;;;9.30;8.80;;;10.50;99.90;;;;;;4876795;29;20228;-81
2023/01/05 03:16:13;;;;;;;9.20;8.70;;;10.50;99.90;;;;;;4874361;29;20206;-81
2023/01/05 03:21:26;;;;;;;9.47;8.97;;;10.50;99.90;;;;;;4854612;29;20312;-81
2023/01/05 03:38:00;;;;;;;9.27;8.67;;;10.60;99.90;;;;;;4882038;29;20207;-81
2023/01/05 03:40:31;;;;;;;8.97;8.57;;;10.60;99.90;;;;;;4876428;29;20257;-81
2023/01/05 03:43:01;;;;;;;9.23;8.73;;;10.60;99.90;;;;;;4882800;29;20585;-83
2023/01/05 03:45:35;;;;;;;9.27;8.77;;;10.60;99.90;;;;;;4873772;29;20254;-80
2023/01/05 03:48:02;;;;;;;8.97;8.57;;;10.60;99.90;;;;;;4875594;29;20232;-79
2023/01/05 03:50:31;;;;;;;8.83;8.43;;;10.60;99.90;;;;;;4870869;29;20226;-81
2023/01/05 03:52:58;;;;;;;9.20;8.60;;;10.60;99.90;;;;;;4876935;29;20761;-80
2023/01/05 03:55:29;;;;;;;9.20;8.70;;;10.60;99.90;;;;;;4875657;29;20193;-81
2023/01/05 03:57:56;;;;;;;8.80;8.40;;;10.60;99.90;;;;;;4883573;29;20668;-79
2023/01/05 04:00:23;;;;;;;9.97;9.37;;;10.60;99.90;;;;;;4873815;29;20210;-80
2023/01/05 04:02:58;;;;;;;9.10;8.60;;;10.70;99.90;;;;;;4880952;29;20256;-80
2023/01/05 04:05:25;;;;;;;8.83;8.40;;;10.70;99.90;;;;;;4873045;29;20236;-81
2023/01/05 04:07:53;;;;;;;9.00;8.50;;;10.70;99.90;;;;;;4868300;29;20190;-80
2023/01/05 04:10:21;;;;;;;9.10;8.60;;;10.70;99.90;;;;;;4873856;29;20211;-80
2023/01/05 04:12:48;;;;;;;8.97;8.53;;;10.70;99.90;;;;;;4875031;29;20229;-80
2023/01/05 04:15:17;;;;;;;9.53;9.03;;;10.80;99.90;;;;;;4873893;29;20216;-82
2023/01/05 04:17:45;;;;;;;9.07;8.63;;;10.70;99.90;;;;;;4875695;29;20337;-83
2023/01/05 04:20:12;;;;;;;9.00;8.60;;;10.70;99.90;;;;;;4874118;29;20202;-81
2023/01/05 04:22:40;;;;;;;9.20;8.70;;;10.70;99.90;;;;;;4877953;29;20648;-81
2023/01/05 04:25:10;;;;;;;9.27;8.77;;;10.80;99.90;;;;;;4878998;29;20211;-80
2023/01/05 04:27:37;;;;;;;9.00;8.60;;;10.70;99.90;;;;;;4878784;29;20206;-80
2023/01/05 04:30:07;;;;;;;9.27;8.77;;;10.80;99.90;;;;;;4873526;29;20226;-79
2023/01/05 04:32:34;;;;;;;8.93;8.53;;;10.80;99.90;;;;;;4877920;29;20703;-80
2023/01/05 04:35:01;;;;;;;8.90;8.50;;;10.80;99.90;;;;;;4878754;29;20209;-80
2023/01/05 04:37:28;;;;;;;8.97;8.57;;;10.80;99.90;;;;;;4873598;29;20648;-81
2023/01/05 04:39:56;;;;;;;9.10;8.60;;;10.80;99.90;;;;;;4875787;29;20230;-81
2023/01/05 04:42:24;;;;;;;8.90;8.50;;;10.80;99.90;;;;;;4880711;29;20227;-80
2023/01/05 04:44:54;;;;;;;9.20;8.70;;;10.80;99.90;;;;;;4874418;29;20206;-80
2023/01/05 04:47:22;;;;;;;9.30;8.80;;;10.80;99.90;;;;;;4878609;29;20214;-80
2023/01/05 04:49:51;;;;;;;9.20;8.70;;;10.90;99.90;;;;;;4880359;29;20209;-80
2023/01/05 04:52:18;;;;;;;9.13;8.67;;;10.90;99.90;;;;;;4879535;29;20233;-80
2023/01/05 04:54:45;;;;;;;9.50;9.00;;;10.90;99.90;;;;;;4878485;29;20218;-82
2023/01/05 04:57:13;;;;;;;9.37;8.87;;;10.90;99.90;;;;;;4877640;29;20218;-80
2023/01/05 04:59:42;;;;;;;9.50;9.00;;;10.90;99.90;;;;;;4879439;29;20207;-79
2023/01/05 05:02:12;;;;;;;9.23;8.73;;;10.90;99.90;;;;;;4882182;29;20237;-81
2023/01/05 05:04:42;;;;;;;9.40;8.90;;;10.90;99.90;;;;;;4876651;29;20206;-79
2023/01/05 05:07:16;;;;;;;9.50;9.00;;;10.90;99.90;;;;;;4878129;29;20209;-79
2023/01/05 05:09:43;;;;;;;9.70;9.20;;;10.90;99.90;;;;;;4872859;29;20699;-80
2023/01/05 05:12:12;;;;;;;9.50;9.00;;;10.90;99.90;;;;;;4873610;29;20274;-79
2023/01/05 05:14:39;;;;;;;9.60;9.10;;;11.00;99.90;;;;;;4878503;29;20211;-78
2023/01/05 05:17:08;;;;;;;9.40;8.90;;;11.00;99.90;;;;;;4878533;29;20203;-80
2023/01/05 05:19:35;;;;;;;9.40;8.90;;;11.00;99.90;;;;;;4876076;29;20206;-81
2023/01/05 05:22:02;;;;;;;9.60;9.10;;;11.00;99.90;;;;;;4878212;29;20227;-79
2023/01/05 05:24:30;;;;;;;9.50;9.00;;;11.00;99.90;;;;;;4875272;29;20441;-80
2023/01/05 05:26:57;;;;;;;9.77;9.27;;;11.00;99.90;;;;;;4877746;29;20212;-79
2023/01/05 05:29:24;;;;;;;9.50;9.00;;;11.00;99.90;;;;;;4870360;29;20203;-81
2023/01/05 05:31:52;;;;;;;9.70;9.20;;;11.00;99.90;;;;;;4878525;29;20241;-79
2023/01/05 05:34:20;;;;;;;9.53;9.03;;;11.00;99.90;;;;;;4874222;29;20220;-79
2023/01/05 05:36:47;;;;;;;9.70;9.20;;;11.00;99.90;;;;;;4873896;29;20198;-80
2023/01/05 05:39:15;;;;;;;9.53;9.03;;;11.00;99.90;;;;;;4874825;29;20207;-80
2023/01/05 05:41:42;;;;;;;9.73;9.23;;;11.00;99.90;;;;;;4869574;29;20285;-80
2023/01/05 05:44:09;;;;;;;9.50;9.00;;;11.00;99.90;;;;;;4882479;29;20212;-82
2023/01/05 05:46:36;;;;;;;9.50;9.00;;;11.00;99.90;;;;;;4879274;29;20214;-82
2023/01/05 05:49:03;;;;;;;9.80;9.20;;;11.00;99.90;;;;;;4879178;29;20263;-80
2023/01/05 05:51:31;;;;;;;9.30;8.80;;;11.00;99.90;;;;;;4877625;29;20236;-80
2023/01/05 05:53:58;;;;;;;9.30;8.80;;;10.90;99.90;;;;;;4877821;29;20306;-80
2023/01/05 05:56:25;;;;;;;9.60;9.00;;;10.90;99.90;;;;;;4878681;29;20264;-81
2023/01/05 05:58:52;;;;;;;9.40;8.90;;;11.00;99.90;;;;;;4878890;29;20256;-80
2023/01/05 06:01:18;;;;;;;9.50;9.00;;;10.90;99.90;;;;;;4868473;29;20300;-81
2023/01/05 06:03:45;;;;;;;9.50;9.00;;;10.90;99.90;;;;;;4874569;29;20203;-79
2023/01/05 06:06:12;;;;;;;9.30;8.80;;;10.90;99.90;;;;;;4877522;29;20215;-81
2023/01/05 06:08:40;;;;;;;9.20;8.70;;;10.90;99.90;;;;;;4880496;29;20200;-80
2023/01/05 06:11:07;;;;;;;9.50;9.00;;;10.90;99.90;;;;;;4875570;29;20257;-79
2023/01/05 06:13:34;;;;;;;9.73;9.23;;;11.00;99.90;;;;;;4881184;29;20583;-80
2023/01/05 06:16:01;;;;;;;10.10;9.60;;;10.90;99.90;;;;;;4881608;29;20202;-82
2023/01/05 06:18:28;;;;;;;9.93;9.43;;;10.90;99.90;;;;;;4874895;29;20207;-81
2023/01/05 06:20:55;;;;;;;9.90;9.30;;;10.90;99.90;;;;;;4863345;29;20219;-80
2023/01/05 06:23:22;;;;;;;9.60;9.10;;;10.90;99.90;;;;;;4881613;29;20256;-81
2023/01/05 06:25:50;;;;;;;9.63;9.13;;;10.90;99.90;;;;;;4877455;29;20204;-82
2023/01/05 06:28:17;;;;;;;9.70;9.20;;;10.90;99.90;;;;;;4871958;29;20267;-81
2023/01/05 06:30:43;;;;;;;9.90;9.40;;;10.90;99.90;;;;;;4872582;29;20225;-80
2023/01/05 06:33:10;;;;;;;9.90;9.40;;;10.90;99.90;;;;;;4872968;29;20225;-77
2023/01/05 06:35:37;;;;;;;9.83;9.33;;;10.90;99.90;;;;;;4876294;29;20285;-81
2023/01/05 06:38:04;;;;;;;9.90;9.40;;;10.90;99.90;;;;;;4874094;29;20213;-81
2023/01/05 06:40:31;;;;;;;9.73;9.23;;;10.80;99.90;;;;;;4872562;29;20214;-80
2023/01/05 06:42:59;;;;;;;9.57;9.07;;;10.70;99.90;;;;;;4873721;29;20190;-81
2023/01/05 06:45:26;;;;;;;9.63;9.13;;;10.70;99.90;;;;;;4879237;29;20201;-80
2023/01/05 06:47:53;;;;;;;9.70;9.20;;;10.70;99.90;;;;;;4876973;29;20198;-81
2023/01/05 06:50:20;;;;;;;9.60;9.10;;;10.60;99.90;;;;;;4878245;29;20198;-82
2023/01/05 06:52:46;;;;;;;9.77;9.27;;;10.60;99.90;;;;;;4877186;29;20250;-79
2023/01/05 06:55:14;;;;;;;9.80;9.30;;;10.50;99.90;;;;;;4876674;29;20862;-83
2023/01/05 06:57:41;;;;;;;9.60;9.10;;;10.50;99.90;;;;;;4880064;29;20301;-80
2023/01/05 07:00:11;;;;;;;10.03;9.53;;;10.50;99.90;;;;;;4871500;29;20835;-81
2023/01/05 07:02:38;;;;;;;10.30;9.80;;;10.50;99.90;;;;;;4876147;29;20291;-85
2023/01/05 07:05:06;;;;;;;9.90;9.40;;;10.50;99.90;;;;;;4868408;29;20207;-82
2023/01/05 07:07:33;;;;;;;10.90;10.30;;;10.50;99.90;;;;;;4873942;29;20232;-83
2023/01/05 07:10:00;;;;;;;10.53;10.03;;;10.50;99.90;;;;;;4879227;29;20202;-82
2023/01/05 07:12:27;;;;;;;10.60;10.10;;;10.50;99.90;;;;;;4875062;29;20291;-82
2023/01/05 07:14:54;;;;;;;10.20;9.70;;;10.50;99.90;;;;;;4879720;29;20207;-82
2023/01/05 07:17:22;;;;;;;10.10;9.60;;;10.50;99.90;;;;;;4876227;29;20667;-83
2023/01/05 07:19:49;;;;;;;10.30;9.80;;;10.50;99.90;;;;;;4880183;29;20206;-83
2023/01/05 07:22:16;;;;;;;10.07;9.57;;;10.50;99.90;;;;;;4877873;29;20226;-84
2023/01/05 07:24:43;;;;;;;9.83;9.33;;;10.50;99.90;;;;;;4882604;29;20210;-81
2023/01/05 07:27:09;;;;;;;9.93;9.43;;;10.50;99.90;;;;;;4885374;29;20210;-80
2023/01/05 07:29:36;;;;;;;10.13;9.63;;;10.50;99.90;;;;;;4881202;29;20614;-81
2023/01/05 07:32:03;;;;;;;10.63;10.03;;;10.50;99.90;;;;;;4876461;29;20257;-79
2023/01/05 07:34:32;;;;;;;10.33;9.73;;;10.40;99.90;;;;;;4878611;29;20257;-80
2023/01/05 07:36:58;;;;;;;10.70;10.17;;;10.40;99.90;;;;;;4876273;29;20226;-81
2023/01/05 07:39:25;;;;;;;10.20;9.70;;;10.40;99.90;;;;;;4875372;29;20222;-80
2023/01/05 07:41:52;;;;;;;10.13;9.63;;;10.40;99.90;;;;;;4876512;29;20648;-82
2023/01/05 07:44:19;;;;;;;10.10;9.57;;;10.30;99.90;;;;;;4873533;29;20210;-80
2023/01/05 07:46:46;;;;;;;10.57;10.07;;;10.30;99.90;;;;;;4875909;29;20651;-78
2023/01/05 07:49:12;;;;;;;10.83;10.23;;;10.30;99.90;;;;;;4880193;29;20211;-81
2023/01/05 07:51:41;;;;;;;10.50;10.00;;;10.30;99.90;;;;;;4865345;29;20655;-81
2023/01/05 07:54:07;;;;;;;10.73;10.13;;;10.20;99.90;;;;;;4863260;29;20290;-80
2023/01/05 07:56:34;;;;;;;10.70;10.10;;;10.20;99.90;;;;;;4861367;29;20211;-81
2023/01/05 07:59:01;;;;;;;10.97;10.37;;;10.30;99.90;;;;;;4869730;29;20297;-81
2023/01/05 08:01:28;;;;;;;10.83;10.23;;;10.20;99.90;;;;;;4873576;29;20245;-81
2023/01/05 08:03:55;;;;;;;10.27;9.67;;;10.20;99.90;;;;;;4882417;29;20210;-81
2023/01/05 08:06:22;;;;;;;10.07;9.57;;;10.20;99.90;;;;;;4885876;29;20199;-80
2023/01/05 08:08:50;;;;;;;10.20;9.70;;;10.20;99.90;;;;;;4881711;29;20226;-79
2023/01/05 08:11:19;;;;;;;10.30;9.80;;;10.20;99.90;;;;;;4883514;29;20230;-81
2023/01/05 08:14:02;;;;;;;10.87;10.17;;;10.20;99.90;;;;;;4881862;29;20791;-81
2023/01/05 08:16:30;;;;;;;10.87;10.27;;;10.20;99.90;;;;;;4882080;29;20234;-80
2023/01/05 08:18:57;;;;;;;11.50;10.90;;;10.20;99.90;;;;;;4883631;29;20229;-81
2023/01/05 08:21:24;;;;;;;11.20;10.60;;;10.20;99.90;;;;;;4881086;29;20239;-81
2023/01/05 08:23:53;;;;;;;11.47;10.87;;;10.20;99.90;;;;;;4879372;29;20573;-80
2023/01/05 08:26:22;;;;;;;11.50;10.90;;;10.30;99.90;;;;;;4878560;29;20373;-82
2023/01/05 08:28:51;;;;;;;11.30;10.70;;;10.30;99.90;;;;;;4879282;29;20227;-81
2023/01/05 08:31:19;;;;;;;11.43;10.83;;;10.30;99.90;;;;;;4880441;29;20270;-79
2023/01/05 08:33:46;;;;;;;11.10;10.50;;;10.30;99.90;;;;;;4884334;29;20229;-80
2023/01/05 08:36:16;;;;;;;11.13;10.53;;;10.30;99.90;;;;;;4877552;29;20278;-79
2023/01/05 08:38:47;;;;;;;10.70;10.10;;;10.30;99.90;;;;;;4879880;29;20205;-80
2023/01/05 08:41:17;;;;;;;10.20;9.70;;;10.40;99.90;;;;;;4878369;29;20305;-80
2023/01/05 08:43:44;;;;;;;10.30;9.80;;;10.40;99.90;;;;;;4878825;29;20552;-80
2023/01/05 08:46:10;;;;;;;10.60;10.00;;;10.40;99.90;;;;;;4878650;29;20222;-80
2023/01/05 08:48:37;;;;;;;10.60;10.10;;;10.40;99.90;;;;;;4878862;29;20207;-80
2023/01/05 08:51:06;;;;;;;10.70;10.10;;;10.40;99.90;;;;;;4875015;29;20309;-80
2023/01/05 08:53:33;;;;;;;10.53;9.93;;;10.50;99.90;;;;;;4878502;29;20233;-80
2023/01/05 08:56:00;;;;;;;10.53;9.97;;;10.50;99.90;;;;;;4879377;29;20239;-79
2023/01/05 08:58:28;;;;;;;10.70;10.10;;;10.50;99.90;;;;;;4878122;29;20205;-80
2023/01/05 09:00:55;;;;;;;10.63;10.03;;;10.50;99.90;;;;;;4877541;29;20245;-79
2023/01/05 09:03:22;;;;;;;11.10;10.40;;;10.60;99.90;;;;;;4879774;29;20207;-79
2023/01/05 09:05:51;;;;;;;10.90;10.30;;;10.70;99.90;;;;;;4875761;29;20876;-80
2023/01/05 09:08:18;;;;;;;10.80;10.20;;;10.80;99.90;;;;;;4878450;29;20406;-80
2023/01/05 09:10:45;;;;;;;11.13;10.47;;;10.90;99.90;;;;;;4878986;29;20300;-80
2023/01/05 09:13:12;;;;;;;10.73;10.13;;;11.00;99.90;;;;;;4877833;29;20210;-79
2023/01/05 09:15:40;;;;;;;10.83;10.23;;;11.10;99.90;;;;;;4879965;29;20209;-80
2023/01/05 09:18:07;;;;;;;10.87;10.27;;;11.20;99.90;;;;;;4880069;29;20271;-80
2023/01/05 09:20:34;;;;;;;10.63;10.03;;;11.30;99.90;;;;;;4877239;29;20304;-79
2023/01/05 09:23:01;;;;;;;10.83;10.23;;;11.40;99.90;;;;;;4879226;29;20238;-79
2023/01/05 09:25:28;;;;;;;10.80;10.20;;;11.40;99.90;;;;;;4879447;29;20200;-85
2023/01/05 09:27:55;;;;;;;11.07;10.47;;;11.40;99.90;;;;;;4881273;29;20226;-84
2023/01/05 09:30:22;;;;;;;11.30;10.60;;;11.40;99.90;;;;;;4874750;29;20204;-80
2023/01/05 09:32:50;;;;;;;11.77;11.03;;;11.40;99.90;;;;;;4873288;29;20594;-80
2023/01/05 09:35:17;;;;;;;14.17;13.17;;;11.30;99.90;;;;;;4874357;29;20623;-80
2023/01/05 09:37:43;;;;;;;17.23;15.83;;;11.30;99.90;;;;;;4869978;29;20207;-81
2023/01/05 09:40:12;;;;;;;16.03;14.63;;;11.20;99.90;;;;;;4868843;29;20256;-81
2023/01/05 09:42:45;;;;;;;14.80;13.70;;;11.10;99.90;;;;;;4870344;29;20220;-81
2023/01/05 09:45:15;;;;;;;13.50;12.50;;;11.10;99.90;;;;;;4861291;29;20221;-80
2023/01/05 09:47:45;;;;;;;12.60;11.70;;;11.10;99.90;;;;;;4874653;29;20240;-81
2023/01/05 09:50:19;;;;;;;11.57;10.87;;;11.10;99.90;;;;;;4867596;29;20245;-80
2023/01/05 09:52:47;;;;;;;11.17;10.43;;;11.10;99.90;;;;;;4866275;29;20219;-81
2023/01/05 09:55:16;;;;;;;10.90;10.30;;;11.20;99.90;;;;;;4870915;29;20314;-81
2023/01/05 09:57:47;;;;;;;10.87;10.17;;;11.20;99.90;;;;;;4875751;29;20641;-81
2023/01/05 10:00:16;;;;;;;12.30;11.50;;;11.30;99.90;;;;;;4870477;29;20223;-80
2023/01/05 10:02:49;;;;;;;11.10;10.40;;;11.30;99.90;;;;;;4877613;29;20233;-81
2023/01/05 10:05:18;;;;;;;11.40;10.70;;;11.40;99.90;;;;;;4871861;29;20223;-79
2023/01/05 10:07:49;;;;;;;10.47;9.97;;;11.50;99.90;;;;;;4870917;29;20344;-79
2023/01/05 10:10:30;;;;;;;10.83;10.23;;;11.60;99.90;;;;;;4871887;29;20204;-80
2023/01/05 10:13:05;;;;;;;10.97;10.27;;;11.70;99.90;;;;;;4871616;29;20212;-79
2023/01/05 10:15:43;;;;;;;10.80;10.10;;;11.80;99.90;;;;;;4871037;29;20603;-79
2023/01/05 10:18:13;;;;;;;13.00;12.20;;;11.80;99.90;;;;;;4871074;29;20675;-81
2023/01/05 10:20:51;;;;;;;11.40;10.70;;;11.80;99.90;;;;;;4873640;29;20203;-79
2023/01/05 10:23:36;;;;;;;11.20;10.50;;;11.80;99.90;;;;;;4871944;29;20204;-79
2023/01/05 10:26:09;;;;;;;10.90;10.30;;;11.90;99.90;;;;;;4874116;29;20207;-79
2023/01/05 10:28:42;;;;;;;11.10;10.40;;;12.00;99.90;;;;;;4874981;29;20260;-78
2023/01/05 10:31:19;;;;;;;11.40;10.70;;;12.10;99.90;;;;;;4872540;29;20592;-79
2023/01/05 10:33:51;;;;;;;11.13;10.43;;;12.10;99.90;;;;;;4875390;29;20620;-80
2023/01/05 10:36:37;;;;;;;11.90;11.20;;;12.10;99.90;;;;;;4868531;29;20208;-79
2023/01/05 10:39:11;;;;;;;11.57;10.97;;;12.10;99.90;;;;;;4874944;29;20278;-79
2023/01/05 10:41:47;;;;;;;11.03;10.33;;;12.10;99.90;;;;;;4863458;29;20760;-80
2023/01/05 10:44:39;;;;;;;12.40;11.37;;;12.00;99.90;;;;;;4880100;29;20201;-80
2023/01/05 10:47:08;;;;;;;12.10;11.30;;;11.90;99.90;;;;;;4879371;29;20205;-80
2023/01/05 10:49:35;;;;;;;12.37;11.43;;;11.90;99.90;;;;;;4874827;29;20210;-81
2023/01/05 10:52:03;;;;;;;11.97;10.97;;;11.80;99.90;;;;;;4873280;29;20275;-79
2023/01/05 10:54:36;;;;;;;11.30;10.50;;;11.80;99.90;;;;;;4876049;29;20221;-81
2023/01/05 10:57:32;;;;;;;11.50;10.60;;;11.80;99.90;;;;;;4878224;29;20221;-79
2023/01/05 11:00:00;;;;;;;11.07;10.27;;;11.70;99.90;;;;;;4876033;29;20208;-82
2023/01/05 11:02:30;;;;;;;14.10;11.40;;;11.70;99.90;;;;;;4870995;29;20720;-77
2023/01/05 11:05:03;;;;;;;12.47;10.40;;;11.80;99.90;;;;;;4880096;29;20199;-78
2023/01/05 11:07:32;;;;;;;11.73;10.63;;;11.70;99.90;;;;;;4867690;29;20194;-78
2023/01/05 11:09:59;;;;;;;11.30;10.30;;;11.70;99.90;;;;;;4883248;29;20207;-79
2023/01/05 11:12:26;;;;;;;11.73;10.93;;;11.70;99.90;;;;;;4880998;29;20289;-80
2023/01/05 11:14:54;;;;;;;13.00;11.63;;;11.70;99.90;;;;;;4875660;29;20212;-79
2023/01/05 11:17:24;;;;;;;12.30;11.13;;;11.70;99.90;;;;;;4876641;29;20239;-81
2023/01/05 11:19:52;;;;;;;11.73;10.83;;;11.70;99.90;;;;;;4879145;29;20226;-82
2023/01/05 11:22:28;;;;;;;12.40;11.20;;;11.80;99.90;;;;;;4878168;29;20233;-82
2023/01/05 11:25:13;;;;;;;11.93;10.90;;;11.80;99.90;;;;;;4872117;29;20208;-83
2023/01/05 11:27:40;;;;;;;14.17;11.60;;;11.80;99.90;;;;;;4882627;29;20209;-80
2023/01/05 11:30:19;;;;;;;13.10;10.77;;;11.90;99.90;;;;;;4872267;29;20222;-80
2023/01/05 11:32:47;;;;;;;12.30;10.97;;;11.90;99.90;;;;;;4878656;29;20232;-80
2023/01/05 11:35:19;;;;;;;12.17;11.00;;;11.90;99.90;;;;;;4876033;29;20227;-81
2023/01/05 11:37:46;;;;;;;12.60;11.47;;;11.90;99.90;;;;;;4884928;29;20225;-82
2023/01/05 11:40:20;;;;;;;12.37;11.17;;;11.80;99.90;;;;;;4877784;29;20576;-83
2023/01/05 11:42:47;;;;;;;11.57;10.60;;;11.80;99.90;;;;;;4880170;29;20227;-83
2023/01/05 11:45:20;;;;;;;12.37;11.10;;;11.80;99.90;;;;;;4877248;29;20210;-84
2023/01/05 11:47:49;;;;;;;11.93;10.93;;;11.80;99.90;;;;;;4878065;29;20205;-83
2023/01/05 11:50:23;;;;;;;11.90;10.90;;;11.80;99.90;;;;;;4883889;29;20200;-78
2023/01/05 11:52:52;;;;;;;11.93;10.83;;;11.80;99.90;;;;;;4875273;29;20611;-80
2023/01/05 11:55:42;;;;;;;10.77;9.77;;;11.70;99.90;;;;;;4875474;29;20232;-83
2023/01/05 11:58:24;;;;;;;10.87;9.90;;;11.70;99.90;;;;;;4873925;29;20684;-82
2023/01/05 12:01:30;;;;;;;10.80;9.90;;;11.70;99.90;;;;;;4872822;29;20232;-85
2023/01/05 12:04:03;;;;;;;11.60;10.50;;;11.70;99.90;;;;;;4850082;29;20208;-80
2023/01/05 12:06:59;;;;;;;11.23;10.20;;;11.70;99.90;;;;;;4872008;29;20716;-79
2023/01/05 12:09:30;;;;;;;11.80;10.70;;;11.80;99.90;;;;;;4862418;29;20213;-77
2023/01/05 12:12:11;;;;;;;12.03;10.60;;;11.80;99.90;;;;;;4868134;29;20226;-79
2023/01/05 12:14:59;;;;;;;13.00;10.97;;;11.80;99.90;;;;;;4863719;29;20216;-79
2023/01/05 12:17:33;;;;;;;11.17;10.33;;;11.80;99.90;;;;;;4869169;29;20201;-79
2023/01/05 12:20:44;;;;;;;11.77;10.67;;;11.70;99.90;;;;;;4880591;29;20208;-79
2023/01/05 12:23:31;;;;;;;11.70;10.50;;;11.60;99.90;;;;;;4875198;29;20205;-79
2023/01/05 12:26:08;;;;;;;11.70;10.50;;;11.60;99.90;;;;;;4881103;29;20215;-78
2023/01/05 12:28:54;;;;;;;11.93;10.83;;;11.50;99.90;;;;;;4878252;29;20208;-80
2023/01/05 12:31:34;;;;;;;13.30;10.77;;;11.40;99.90;;;;;;4875753;29;20224;-78
2023/01/05 12:34:15;;;;;;;11.87;10.80;;;11.50;99.90;;;;;;4879823;29;20633;-79
2023/01/05 12:36:58;;;;;;;11.70;10.70;;;11.50;99.90;;;;;;4870770;29;20628;-79
2023/01/05 12:39:45;;;;;;;12.00;10.80;;;11.50;99.90;;;;;;4873746;29;20208;-79
2023/01/05 12:42:53;;;;;;;12.40;11.20;;;11.50;99.90;;;;;;4872782;29;20233;-80
2023/01/05 12:45:37;;;;;;;11.10;10.30;;;11.50;99.90;;;;;;4865739;29;20281;-79
2023/01/05 12:48:07;;;;;;;12.30;11.30;;;11.60;99.90;;;;;;4870463;29;20200;-78
2023/01/05 12:50:42;;;;;;;11.70;10.90;;;11.50;99.90;;;;;;4862921;29;20278;-80
2023/01/05 12:53:22;;;;;;;11.40;10.70;;;11.50;99.90;;;;;;4863328;29;20264;-78
2023/01/05 12:55:53;;;;;;;11.77;10.77;;;11.50;99.90;;;;;;4871868;29;20288;-80
2023/01/05 12:58:27;;;;;;;11.47;10.70;;;11.60;99.90;;;;;;4872886;29;20675;-79
2023/01/05 13:00:57;;;;;;;11.63;10.83;;;11.60;99.90;;;;;;4877475;29;20233;-79
2023/01/05 13:03:29;;;;;;;11.77;10.70;;;11.70;99.90;;;;;;4876951;29;20255;-79
2023/01/05 13:06:02;;;;;;;11.77;10.90;;;11.70;99.90;;;;;;4877584;29;20273;-79
2023/01/05 13:08:37;;;;;;;11.00;10.20;;;11.70;99.90;;;;;;4870936;29;20634;-80
2023/01/05 13:11:09;;;;;;;11.67;10.67;;;11.80;99.90;;;;;;4867772;29;20227;-79
2023/01/05 13:13:40;;;;;;;11.03;10.23;;;11.80;99.90;;;;;;4872497;29;20254;-81
2023/01/05 13:16:17;;;;;;;11.43;10.67;;;11.80;99.90;;;;;;4882170;29;20226;-82
2023/01/05 13:19:00;;;;;;;11.53;10.80;;;11.70;99.90;;;;;;4875420;29;20204;-82
2023/01/05 13:21:28;;;;;;;11.67;10.60;;;11.70;99.90;;;;;;4872876;29;20609;-81
2023/01/05 13:24:00;;;;;;;11.60;10.70;;;11.70;99.90;;;;;;4877659;29;20574;-80
2023/01/05 13:26:29;;;;;;;11.80;10.80;;;11.70;99.90;;;;;;4876337;29;20204;-80
2023/01/05 13:28:56;;;;;;;10.70;10.00;;;11.70;99.90;;;;;;4871638;29;20201;-80
2023/01/05 13:31:44;;;;;;;11.53;10.60;;;11.70;99.90;;;;;;4881411;29;20229;-80
2023/01/05 13:34:39;;;;;;;10.77;10.07;;;11.60;99.90;;;;;;4873890;29;20554;-80
2023/01/05 13:37:22;;;;;;;11.37;10.57;;;11.60;99.90;;;;;;4876392;29;20212;-80
2023/01/05 13:40:23;;;;;;;11.70;10.80;;;11.60;99.90;;;;;;4874953;29;20260;-80
2023/01/05 13:43:08;;;;;;;11.43;10.60;;;11.60;99.90;;;;;;4880160;29;20205;-80
2023/01/05 13:46:11;;;;;;;11.97;10.97;;;11.60;99.90;;;;;;4874355;29;20382;-80
2023/01/05 13:48:59;;;;;;;11.53;10.60;;;11.60;99.90;;;;;;4867899;29;20204;-81
2023/01/05 13:51:45;;;;;;;11.53;10.73;;;11.60;99.90;;;;;;4874792;29;20688;-82
2023/01/05 13:54:18;;;;;;;12.50;11.40;;;11.60;99.90;;;;;;4875316;29;20219;-78
2023/01/05 13:56:48;;;;;;;11.57;10.77;;;11.60;99.90;;;;;;4867809;29;20232;-79
2023/01/05 13:59:25;;;;;;;11.67;10.97;;;11.60;99.90;;;;;;4865337;29;20240;-81
2023/01/05 14:01:55;;;;;;;11.73;10.83;;;11.60;99.90;;;;;;4871110;29;20675;-81
2023/01/05 14:04:26;;;;;;;11.40;10.60;;;11.60;99.90;;;;;;4880406;29;20213;-80
2023/01/05 14:06:55;;;;;;;11.70;10.80;;;11.70;99.90;;;;;;4868067;29;20830;-82
2023/01/05 14:09:28;;;;;;;11.17;10.47;;;11.70;99.90;;;;;;4869817;29;20276;-81
2023/01/05 14:12:25;;;;;;;11.73;10.63;;;11.70;99.90;;;;;;4874892;29;20231;-80
2023/01/05 14:15:26;;;;;;;11.10;10.40;;;11.70;99.90;;;;;;4872024;29;20856;-81
2023/01/05 14:18:00;;;;;;;11.30;10.50;;;11.70;99.90;;;;;;4878743;29;20279;-82
2023/01/05 14:20:45;;;;;;;10.50;9.90;;;11.80;99.90;;;;;;4876748;29;20203;-81
2023/01/05 14:23:48;;;;;;;10.60;10.00;;;11.80;99.90;;;;;;4878266;29;20219;-81
2023/01/05 14:26:15;;;;;;;10.87;10.07;;;11.70;99.90;;;;;;4880629;29;20203;-84
2023/01/05 14:28:47;;;;;;;10.93;10.20;;;11.70;99.90;;;;;;4878272;29;20201;-80
2023/01/05 14:31:38;;;;;;;10.97;10.27;;;11.70;99.90;;;;;;4875220;29;20265;-81
2023/01/05 14:34:12;;;;;;;10.60;9.90;;;11.70;99.90;;;;;;4852640;29;20214;-81
2023/01/05 14:36:43;;;;;;;10.77;10.07;;;11.60;99.90;;;;;;4881679;29;20276;-82
2023/01/05 14:39:24;;;;;;;10.80;10.10;;;11.60;99.90;;;;;;4874585;29;20282;-81
2023/01/05 14:42:03;;;;;;;11.20;10.50;;;11.50;99.90;;;;;;4881701;29;20231;-81
2023/01/05 14:44:38;;;;;;;10.80;10.10;;;11.50;99.90;;;;;;4873512;29;20231;-84
2023/01/05 14:47:06;;;;;;;11.00;10.20;;;11.50;99.90;;;;;;4883729;29;20708;-79
2023/01/05 14:49:36;;;;;;;11.27;10.40;;;11.50;99.90;;;;;;4879622;29;20204;-80
2023/01/05 14:52:13;;;;;;;11.00;10.20;;;11.50;99.90;;;;;;4874360;29;20653;-81
2023/01/05 14:55:11;;;;;;;11.10;10.30;;;11.40;99.90;;;;;;4876443;29;20205;-79
2023/01/05 14:57:47;;;;;;;10.90;10.10;;;11.40;99.90;;;;;;4878548;29;20581;-80
2023/01/05 15:00:17;;;;;;;11.27;10.47;;;11.40;99.90;;;;;;4879535;29;20242;-77
2023/01/05 15:03:00;;;;;;;11.30;10.40;;;11.30;99.90;;;;;;4875023;29;20232;-77
2023/01/05 15:05:28;;;;;;;11.20;10.40;;;11.30;99.90;;;;;;4887434;29;20232;-79
2023/01/05 15:08:07;;;;;;;10.83;10.10;;;11.30;99.90;;;;;;4879351;29;20244;-79
2023/01/05 15:11:24;;;;;;;11.17;10.47;;;11.20;99.90;;;;;;4874077;29;20209;-78
2023/01/05 15:14:34;;;;;;;11.10;10.30;;;11.20;99.90;;;;;;4873857;29;20239;-83
2023/01/05 15:17:31;;;;;;;10.77;10.03;;;11.20;99.90;;;;;;4877081;29;20300;-83
2023/01/05 15:20:24;;;;;;;11.30;10.50;;;11.20;99.90;;;;;;4878205;29;20207;-82
2023/01/05 15:23:09;;;;;;;10.90;10.20;;;11.10;99.90;;;;;;4862137;29;20208;-83
2023/01/05 15:26:01;;;;;;;10.77;10.07;;;11.10;99.90;;;;;;4870778;29;20209;-82
2023/01/05 15:28:54;;;;;;;10.83;10.03;;;11.00;99.90;;;;;;4872340;29;20200;-84
2023/01/05 15:31:40;;;;;;;11.13;10.33;;;11.00;99.90;;;;;;4867991;29;20238;-83
2023/01/05 15:34:17;;;;;;;11.07;10.30;;;11.00;99.90;;;;;;4880000;29;20212;-82
2023/01/05 15:36:51;;;;;;;10.87;10.13;;;10.90;99.90;;;;;;4876380;29;20624;-80
2023/01/05 15:39:31;;;;;;;10.33;9.73;;;10.90;99.90;;;;;;4880529;29;20284;-78
2023/01/05 15:42:01;;;;;;;11.00;10.30;;;10.90;99.90;;;;;;4874963;29;20226;-80
2023/01/05 15:44:33;;;;;;;11.80;11.10;;;10.80;99.90;;;;;;4877632;29;20218;-86
2023/01/05 15:47:05;;;;;;;11.37;10.70;;;10.80;99.90;;;;;;4878062;29;20203;-83
2023/01/05 15:49:33;;;;;;;12.43;11.63;;;10.80;99.90;;;;;;4877386;29;20207;-83
2023/01/05 15:52:01;;;;;;;12.50;11.73;;;10.70;99.90;;;;;;4873077;29;20739;-84
2023/01/05 15:54:31;;;;;;;11.63;10.83;;;10.70;99.90;;;;;;4878004;29;20202;-84
2023/01/05 15:57:00;;;;;;;11.00;10.30;;;10.70;99.90;;;;;;4871923;29;20226;-83
2023/01/05 15:59:31;;;;;;;11.40;10.63;;;10.70;99.90;;;;;;4881287;29;20208;-83
2023/01/05 16:01:58;;;;;;;12.07;11.17;;;10.70;99.90;;;;;;4872739;29;20301;-84
2023/01/05 16:04:25;;;;;;;11.60;10.80;;;10.70;99.90;;;;;;4880081;29;20249;-83
2023/01/05 16:07:00;;;;;;;11.83;10.97;;;10.70;99.90;;;;;;4878419;29;20219;-79
2023/01/05 16:09:30;;;;;;;11.47;10.70;;;10.60;99.90;;;;;;4872901;29;20202;-79
2023/01/05 16:12:00;;;;;;;11.50;10.60;;;10.60;99.90;;;;;;4869796;29;20292;-82
2023/01/05 16:14:32;;;;;;;11.67;10.77;;;10.60;99.90;;;;;;4869437;29;20199;-84
2023/01/05 16:17:04;;;;;;;11.43;10.53;;;10.60;99.90;;;;;;4873803;29;20700;-82
2023/01/05 16:19:37;;;;;;;11.63;10.57;;;10.60;99.90;;;;;;4867712;29;20253;-83